Caparao, Brazil
Current Conditions -  °F | °C
As of 10:35 PM on Wednesday 22 Oct 2014 (Local Time) from SBIP Reporting Station
Overcast Overcast  
Wind Chill: 73°   Ceiling: 6000
Heat Index: 73°   Visibility: 6mi
Dew Point: 63°   Wind: 0mph
Humidity: 69%   Direction: NA
Pressure: 30.15"   Gusts: NA
Location:  20.52°S, 41.9°W
Report Text: SBIP 230035Z 00000KT 9999 SCT030 OVC060 23/17 Q1021
Loading
Personal Weather Stations






























Interactive Weather Map
Tropical Storm Tracking
New forecast layout! Learn more

10-Day Weather Forecast

Advertisements
Track Severe Weather on mobile